createdAt,value
2022-08-09T00:00:37.007Z,51.97
2022-08-09T00:04:06.166Z,52.20
2022-08-09T00:06:34.005Z,52.43
2022-08-09T00:09:19.422Z,53.39
2022-08-09T00:12:05.679Z,53.39
2022-08-09T00:14:54.449Z,53.76
2022-08-09T00:18:10.331Z,54.54
2022-08-09T00:20:50.113Z,54.89
2022-08-09T00:23:55.325Z,56.02
2022-08-09T00:26:39.623Z,56.28
2022-08-09T00:29:39.570Z,55.89
2022-08-09T00:32:29.792Z,56.47
2022-08-09T00:35:13.932Z,56.55
2022-08-09T00:37:58.341Z,56.82
2022-08-09T00:40:52.624Z,57.93
2022-08-09T00:44:16.793Z,58.46
2022-08-09T00:46:55.804Z,58.32
2022-08-09T00:49:43.766Z,58.42
2022-08-09T00:52:38.722Z,58.49
2022-08-09T00:55:54.264Z,58.73
2022-08-09T00:58:27.634Z,58.81
2022-08-09T01:01:16.632Z,58.64
2022-08-09T01:04:08.050Z,57.93
2022-08-09T01:07:05.349Z,57.72
2022-08-09T01:10:00.689Z,57.66
2022-08-09T01:12:52.704Z,58.23
2022-08-09T01:15:52.061Z,59.25
2022-08-09T01:18:38.599Z,58.81
2022-08-09T01:21:44.601Z,59.70
2022-08-09T01:24:50.470Z,60.23
2022-08-09T01:27:41.265Z,60.81
2022-08-09T01:30:33.652Z,60.60
2022-08-09T01:33:22.921Z,60.44
2022-08-09T01:36:10.372Z,60.48
2022-08-09T01:38:58.219Z,60.60
2022-08-09T01:41:53.556Z,60.53
2022-08-09T01:44:46.056Z,60.91
2022-08-09T01:47:32.149Z,61.10
2022-08-09T01:50:36.902Z,61.22
2022-08-09T01:53:29.033Z,62.75
2022-08-09T01:56:20.979Z,62.82
2022-08-09T01:59:10.421Z,62.59
2022-08-09T02:02:00.184Z,63.63
2022-08-09T02:04:45.883Z,64.58
2022-08-09T02:08:40.327Z,64.11
2022-08-09T02:10:40.518Z,65.06
2022-08-09T02:13:40.445Z,64.73
2022-08-09T02:16:33.879Z,65.12
2022-08-09T02:19:34.982Z,65.24
2022-08-09T02:22:35.694Z,65.71
2022-08-09T02:25:24.479Z,65.70
2022-08-09T02:28:17.920Z,67.39
2022-08-09T02:31:06.160Z,67.60
2022-08-09T02:34:06.650Z,66.93
2022-08-09T02:37:01.487Z,67.24
2022-08-09T02:39:55.368Z,67.90
2022-08-09T02:42:51.165Z,68.22
2022-08-09T02:45:41.701Z,69.12
2022-08-09T02:48:31.091Z,69.52
2022-08-09T02:51:21.754Z,69.74
2022-08-09T02:54:12.405Z,69.83
2022-08-09T02:57:01.931Z,69.82
2022-08-09T03:00:26.126Z,70.16
2022-08-09T03:03:08.604Z,70.07
2022-08-09T03:05:58.167Z,70.67
2022-08-09T03:08:45.495Z,70.83
2022-08-09T03:12:06.716Z,70.83
2022-08-09T03:14:37.109Z,70.39
2022-08-09T03:17:27.038Z,70.22
2022-08-09T03:20:12.609Z,70.00
2022-08-09T03:22:58.307Z,70.24
2022-08-09T03:26:03.583Z,70.15
2022-08-09T03:28:55.055Z,70.82
2022-08-09T03:31:42.663Z,70.00
2022-08-09T03:34:44.392Z,69.84
2022-08-09T03:37:55.814Z,69.66
2022-08-09T03:40:36.210Z,69.43
2022-08-09T03:43:20.428Z,69.60
2022-08-09T03:46:20.003Z,68.92
2022-08-09T03:49:08.827Z,69.12
2022-08-09T03:52:00.301Z,68.46
2022-08-09T03:54:50.960Z,67.86
2022-08-09T03:57:35.034Z,67.33
2022-08-09T04:00:39.081Z,66.57
2022-08-09T04:03:46.367Z,66.39
2022-08-09T04:06:30.567Z,66.37
2022-08-09T04:09:41.999Z,66.41
2022-08-09T04:12:34.889Z,66.08
2022-08-09T04:15:39.157Z,66.67
2022-08-09T04:18:25.303Z,66.37
2022-08-09T04:21:10.417Z,65.82
2022-08-09T04:23:57.671Z,66.76
2022-08-09T04:26:41.921Z,66.77
2022-08-09T04:29:25.772Z,66.18
2022-08-09T04:32:14.015Z,66.09
2022-08-09T04:35:01.059Z,65.13
2022-08-09T04:37:46.999Z,64.95
2022-08-09T04:40:48.346Z,64.51
2022-08-09T04:43:49.868Z,63.66
2022-08-09T04:46:59.204Z,63.46
2022-08-09T04:49:54.193Z,63.16
2022-08-09T04:52:40.820Z,62.91
2022-08-09T04:55:24.879Z,62.70
2022-08-09T04:58:09.284Z,63.38
2022-08-09T05:00:54.493Z,63.18
2022-08-09T05:03:43.266Z,63.03
2022-08-09T05:06:29.826Z,62.88
2022-08-09T05:09:21.599Z,63.16
2022-08-09T05:12:06.286Z,62.21
2022-08-09T05:14:50.306Z,62.05
2022-08-09T05:18:39.414Z,61.18
2022-08-09T05:20:38.919Z,60.58
2022-08-09T05:24:00.998Z,60.66
2022-08-09T05:26:36.776Z,59.90
2022-08-09T05:29:31.556Z,58.84
2022-08-09T05:32:15.909Z,58.46
2022-08-09T05:35:00.231Z,57.52
2022-08-09T05:37:47.629Z,57.13
2022-08-09T05:40:31.920Z,56.71
2022-08-09T05:43:17.225Z,56.79
2022-08-09T05:46:01.712Z,55.94
2022-08-09T05:48:48.679Z,55.05
2022-08-09T05:51:46.359Z,53.92
2022-08-09T05:54:30.587Z,53.29
2022-08-09T05:57:17.610Z,53.14
2022-08-09T06:00:07.625Z,53.19
2022-08-09T06:02:57.828Z,52.17
2022-08-09T06:05:54.834Z,51.68
2022-08-09T06:08:44.879Z,51.46
2022-08-09T06:11:40.963Z,50.63
2022-08-09T06:14:40.682Z,49.97
2022-08-09T06:17:26.159Z,49.26
2022-08-09T06:20:23.432Z,49.89
2022-08-09T06:23:08.496Z,49.31
2022-08-09T06:25:56.376Z,48.30
2022-08-09T06:28:43.299Z,47.85
2022-08-09T06:31:31.385Z,45.81
2022-08-09T06:34:26.389Z,45.08
2022-08-09T06:37:14.820Z,43.88
2022-08-09T06:40:01.268Z,43.09
2022-08-09T06:42:49.746Z,42.77
2022-08-09T06:46:07.814Z,41.97
2022-08-09T06:48:42.549Z,43.32
2022-08-09T06:51:28.489Z,43.23
2022-08-09T06:54:14.818Z,42.80
2022-08-09T06:56:59.284Z,41.87
2022-08-09T07:00:50.509Z,41.46
2022-08-09T07:02:50.796Z,40.98
2022-08-09T07:06:02.443Z,41.16
2022-08-09T07:08:40.824Z,40.29
2022-08-09T07:11:25.635Z,39.47
2022-08-09T07:14:09.830Z,38.43
2022-08-09T07:16:58.052Z,37.55
2022-08-09T07:19:42.629Z,38.02
2022-08-09T07:22:34.591Z,38.87
2022-08-09T07:25:21.925Z,39.39
2022-08-09T07:28:07.227Z,38.38
2022-08-09T07:30:54.127Z,37.78
2022-08-09T07:33:52.207Z,37.89
2022-08-09T07:36:41.012Z,36.84
2022-08-09T07:39:40.405Z,36.38
2022-08-09T07:42:32.701Z,35.58
2022-08-09T07:45:36.841Z,33.85
2022-08-09T07:48:22.537Z,34.44
2022-08-09T07:52:05.358Z,33.90
2022-08-09T07:54:19.251Z,33.42
2022-08-09T07:57:12.184Z,32.85
2022-08-09T08:00:03.447Z,31.95
2022-08-09T08:02:56.082Z,31.14
2022-08-09T08:05:53.865Z,30.79
2022-08-09T08:09:01.960Z,29.78
2022-08-09T08:12:24.303Z,28.78
2022-08-09T08:14:49.613Z,26.86
2022-08-09T08:17:55.234Z,27.02
2022-08-09T08:20:39.784Z,27.05
2022-08-09T08:23:27.340Z,27.04
2022-08-09T08:26:11.707Z,27.61
2022-08-09T08:28:56.941Z,27.26
2022-08-09T08:32:02.573Z,26.97
2022-08-09T08:34:46.665Z,26.37
2022-08-09T08:37:41.912Z,27.00
2022-08-09T08:40:40.242Z,26.40
2022-08-09T08:43:26.492Z,26.63
2022-08-09T08:46:32.420Z,24.50
2022-08-09T08:49:19.243Z,24.18
2022-08-09T08:52:10.276Z,24.46
2022-08-09T08:54:55.659Z,24.41
2022-08-09T08:57:39.578Z,24.05
2022-08-09T09:00:27.684Z,24.91
2022-08-09T09:03:23.128Z,24.40
2022-08-09T09:06:18.782Z,24.57
2022-08-09T09:09:20.990Z,25.37
2022-08-09T09:12:16.725Z,25.87
2022-08-09T09:15:02.271Z,25.75
2022-08-09T09:17:53.043Z,25.20
2022-08-09T09:20:38.826Z,24.44
2022-08-09T09:23:49.935Z,23.60
2022-08-09T09:26:55.994Z,23.96
2022-08-09T09:30:08.446Z,24.11
2022-08-09T09:33:02.763Z,23.68
2022-08-09T09:36:01.947Z,23.35
2022-08-09T09:38:50.315Z,23.81
2022-08-09T09:41:49.061Z,23.97
2022-08-09T09:44:35.844Z,20.06
2022-08-09T09:47:21.768Z,20.29
2022-08-09T09:50:14.987Z,20.41
2022-08-09T09:53:01.634Z,19.38
2022-08-09T09:56:04.563Z,19.07
2022-08-09T09:58:50.328Z,20.36
2022-08-09T10:01:40.890Z,19.15
2022-08-09T10:04:30.923Z,19.96
2022-08-09T10:07:26.903Z,19.90
2022-08-09T10:10:13.972Z,19.49
2022-08-09T10:13:02.863Z,19.74
2022-08-09T10:16:09.536Z,20.21
2022-08-09T10:18:56.908Z,19.44
2022-08-09T10:21:49.060Z,18.57
2022-08-09T10:24:35.986Z,18.56
2022-08-09T10:27:24.761Z,18.34
2022-08-09T10:34:04.828Z,18.17
2022-08-09T10:36:24.589Z,18.35
2022-08-09T10:39:15.423Z,18.74
2022-08-09T10:42:00.393Z,19.01
2022-08-09T10:44:51.456Z,17.49
2022-08-09T10:48:16.476Z,17.59
2022-08-09T10:51:13.742Z,18.30
2022-08-09T10:54:05.993Z,18.43
2022-08-09T10:57:09.314Z,17.16
2022-08-09T10:59:53.852Z,16.65
2022-08-09T11:03:11.076Z,16.38
2022-08-09T11:06:25.483Z,16.30
2022-08-09T11:09:15.756Z,16.28
2022-08-09T11:12:15.070Z,15.88
2022-08-09T11:15:03.065Z,15.41
2022-08-09T11:17:53.771Z,15.94
2022-08-09T11:20:49.716Z,16.37
2022-08-09T11:24:04.161Z,16.22
2022-08-09T11:26:54.550Z,16.11
2022-08-09T11:30:03.980Z,15.80
2022-08-09T11:32:50.896Z,15.78
2022-08-09T11:35:50.387Z,15.66
2022-08-09T11:38:41.462Z,15.85
2022-08-09T11:41:37.625Z,14.96
2022-08-09T11:44:44.709Z,15.33
2022-08-09T11:47:47.274Z,15.65
2022-08-09T11:50:54.186Z,14.76
2022-08-09T11:53:59.318Z,13.57
2022-08-09T11:56:48.141Z,13.40
2022-08-09T11:59:33.730Z,13.43
2022-08-09T12:02:37.350Z,14.10
2022-08-09T12:05:23.026Z,14.49
2022-08-09T12:08:12.529Z,15.13
2022-08-09T12:11:12.753Z,14.02
2022-08-09T12:14:09.289Z,13.85
2022-08-09T12:16:56.296Z,13.69
2022-08-09T12:19:42.810Z,13.02
2022-08-09T12:22:27.678Z,13.57
2022-08-09T12:25:15.237Z,13.48
2022-08-09T12:29:15.302Z,13.30
2022-08-09T12:31:59.163Z,13.32
2022-08-09T12:34:34.564Z,13.22
2022-08-09T12:37:23.481Z,12.81
2022-08-09T12:40:11.209Z,13.38
2022-08-09T12:42:57.012Z,14.05
2022-08-09T12:45:43.735Z,16.51
2022-08-09T12:48:44.795Z,16.38
2022-08-09T12:51:52.578Z,16.11
2022-08-09T12:56:12.475Z,15.77
2022-08-09T12:57:54.849Z,15.90
2022-08-09T13:00:47.586Z,15.82
2022-08-09T13:03:53.861Z,15.84
2022-08-09T13:06:42.957Z,16.00
2022-08-09T13:09:30.707Z,15.85
2022-08-09T13:12:14.675Z,15.94
2022-08-09T13:15:08.351Z,15.95
2022-08-09T13:18:05.224Z,15.87
2022-08-09T13:22:34.282Z,15.23
2022-08-09T13:24:17.100Z,14.00
2022-08-09T13:27:06.933Z,14.54
2022-08-09T13:30:04.003Z,15.03
2022-08-09T13:32:59.420Z,14.31
2022-08-09T13:36:39.296Z,15.60
2022-08-09T13:38:55.886Z,14.93
2022-08-09T13:41:57.643Z,15.62
2022-08-09T13:44:45.846Z,14.76
2022-08-09T13:47:48.979Z,14.33
2022-08-09T13:50:35.903Z,14.95
2022-08-09T13:53:19.892Z,15.52
2022-08-09T13:56:21.356Z,15.37
2022-08-09T13:59:09.775Z,15.74
2022-08-09T14:02:01.476Z,15.52
2022-08-09T14:04:49.374Z,15.63
2022-08-09T14:07:45.053Z,15.84
2022-08-09T14:10:46.336Z,15.88
2022-08-09T14:14:22.451Z,16.01
2022-08-09T14:16:38.675Z,15.43
2022-08-09T14:19:24.507Z,16.36
2022-08-09T14:22:09.088Z,15.60
2022-08-09T14:24:54.799Z,15.79
2022-08-09T14:27:57.150Z,15.61
2022-08-09T14:30:42.993Z,15.44
2022-08-09T14:33:27.196Z,15.76
2022-08-09T14:36:19.727Z,16.23
2022-08-09T14:39:08.735Z,16.12
2022-08-09T14:41:54.330Z,16.31
2022-08-09T14:44:48.966Z,16.04
2022-08-09T14:47:49.637Z,16.46
2022-08-09T14:50:43.085Z,16.79
2022-08-09T14:53:29.818Z,17.08
2022-08-09T14:56:15.578Z,16.72
2022-08-09T14:59:00.937Z,17.13
2022-08-09T15:01:44.830Z,17.49
2022-08-09T15:04:31.163Z,17.41
2022-08-09T15:07:15.226Z,17.66
2022-08-09T15:10:07.504Z,17.72
2022-08-09T15:12:55.530Z,17.42
2022-08-09T15:15:43.676Z,17.24
2022-08-09T15:18:27.820Z,17.54
2022-08-09T15:21:54.854Z,17.56
2022-08-09T15:24:24.198Z,17.46
2022-08-09T15:27:11.297Z,16.74
2022-08-09T15:30:59.255Z,17.00
2022-08-09T15:33:00.550Z,17.18
2022-08-09T15:36:01.644Z,17.13
2022-08-09T15:38:46.361Z,16.93
2022-08-09T15:41:32.486Z,17.12
2022-08-09T15:44:16.540Z,17.19
2022-08-09T15:47:03.826Z,16.98
2022-08-09T15:50:03.606Z,17.28
2022-08-09T15:52:54.964Z,16.75
2022-08-09T15:56:10.890Z,17.04
2022-08-09T15:58:54.524Z,17.35
2022-08-09T16:01:38.496Z,17.32
2022-08-09T16:04:23.431Z,17.62
2022-08-09T16:07:14.239Z,17.58
2022-08-09T16:10:04.870Z,17.89
2022-08-09T16:12:50.257Z,17.87
2022-08-09T16:16:04.604Z,18.16
2022-08-09T16:18:44.863Z,18.45
2022-08-09T16:21:31.798Z,18.57
2022-08-09T16:24:32.998Z,18.45
2022-08-09T16:27:18.157Z,18.16
2022-08-09T16:30:02.703Z,18.43
2022-08-09T16:33:08.162Z,17.67
2022-08-09T16:35:57.210Z,17.72
2022-08-09T16:38:44.857Z,17.42
2022-08-09T16:42:02.237Z,17.87
2022-08-09T16:44:40.771Z,18.14
2022-08-09T16:48:38.346Z,17.89
2022-08-09T16:50:33.866Z,17.98
2022-08-09T16:53:18.748Z,18.17
2022-08-09T16:56:10.281Z,18.55
2022-08-09T16:58:56.036Z,18.57
2022-08-09T17:01:43.859Z,18.89
2022-08-09T17:04:34.533Z,19.01
2022-08-09T17:08:43.600Z,19.21
2022-08-09T17:10:23.807Z,19.31
2022-08-09T17:13:07.652Z,19.81
2022-08-09T17:16:00.026Z,20.85
2022-08-09T17:18:45.926Z,21.19
2022-08-09T17:21:32.054Z,21.83
2022-08-09T17:24:20.645Z,22.39
2022-08-09T17:27:11.960Z,22.74
2022-08-09T17:29:59.089Z,23.12
2022-08-09T17:32:45.540Z,23.41
2022-08-09T17:35:31.151Z,23.47
2022-08-09T17:38:31.026Z,23.95
2022-08-09T17:41:19.452Z,24.30
2022-08-09T17:44:38.118Z,24.72
2022-08-09T17:47:10.432Z,25.03
2022-08-09T17:50:04.014Z,25.50
2022-08-09T17:52:55.072Z,25.74
2022-08-09T17:55:49.273Z,25.68
2022-08-09T17:58:33.631Z,26.27
2022-08-09T18:01:23.228Z,25.82
2022-08-09T18:04:07.665Z,26.44
2022-08-09T18:06:55.754Z,26.10
2022-08-09T18:09:41.463Z,26.01
2022-08-09T18:12:30.111Z,26.17
2022-08-09T18:15:50.299Z,25.84
2022-08-09T18:18:32.524Z,25.76
2022-08-09T18:21:23.543Z,26.11
2022-08-09T18:24:14.431Z,26.67
2022-08-09T18:27:01.034Z,26.59
2022-08-09T18:30:40.039Z,27.05
2022-08-09T18:32:54.245Z,27.00
2022-08-09T18:35:58.356Z,27.71
2022-08-09T18:38:42.629Z,28.25
2022-08-09T18:41:27.868Z,28.22
2022-08-09T18:44:13.641Z,27.85
2022-08-09T18:47:08.470Z,28.42
2022-08-09T18:50:02.842Z,28.35
2022-08-09T18:52:50.805Z,28.05
2022-08-09T18:55:56.489Z,28.30
2022-08-09T18:58:40.175Z,28.99
2022-08-09T19:01:24.132Z,29.04
2022-08-09T19:04:09.022Z,29.65
2022-08-09T19:06:52.831Z,30.74
2022-08-09T19:10:14.867Z,31.35
2022-08-09T19:12:41.369Z,32.57
2022-08-09T19:15:30.962Z,33.46
2022-08-09T19:18:16.974Z,33.78
2022-08-09T19:21:02.597Z,34.29
2022-08-09T19:24:32.489Z,34.77
2022-08-09T19:26:51.707Z,34.61
2022-08-09T19:29:38.199Z,35.10
2022-08-09T19:32:41.273Z,35.52
2022-08-09T19:35:26.718Z,35.24
2022-08-09T19:38:10.641Z,35.27
2022-08-09T19:40:54.925Z,35.60
2022-08-09T19:44:00.593Z,35.72
2022-08-09T19:46:50.478Z,35.63
2022-08-09T19:50:07.382Z,35.68
2022-08-09T19:52:51.741Z,35.84
2022-08-09T19:56:02.994Z,35.87
2022-08-09T19:58:40.488Z,36.17
2022-08-09T20:02:03.190Z,36.32
2022-08-09T20:04:47.546Z,36.18
2022-08-09T20:07:58.838Z,36.54
2022-08-09T20:10:40.812Z,36.91
2022-08-09T20:13:27.628Z,36.71
2022-08-09T20:16:37.360Z,36.82
2022-08-09T20:19:48.750Z,36.60
2022-08-09T20:22:32.247Z,37.31
2022-08-09T20:25:22.713Z,37.45
2022-08-09T20:28:06.861Z,36.88
2022-08-09T20:30:51.044Z,37.49
2022-08-09T20:33:39.071Z,37.49
2022-08-09T20:36:27.274Z,37.37
2022-08-09T20:39:29.094Z,37.61
2022-08-09T20:42:16.550Z,37.90
2022-08-09T20:45:57.474Z,37.65
2022-08-09T20:48:06.530Z,37.54
2022-08-09T20:50:57.896Z,37.74
2022-08-09T20:53:42.256Z,37.78
2022-08-09T20:56:28.383Z,37.54
2022-08-09T20:59:16.797Z,37.27
2022-08-09T21:02:01.414Z,37.22
2022-08-09T21:05:54.408Z,37.35
2022-08-09T21:07:49.194Z,37.18
2022-08-09T21:10:35.634Z,37.17
2022-08-09T21:13:21.392Z,36.97
2022-08-09T21:16:19.147Z,37.44
2022-08-09T21:20:05.069Z,37.12
2022-08-09T21:22:35.789Z,37.32
2022-08-09T21:25:37.638Z,37.06
2022-08-09T21:28:33.477Z,37.50
2022-08-09T21:31:19.895Z,37.28
2022-08-09T21:34:05.606Z,37.55
2022-08-09T21:36:55.731Z,38.32
2022-08-09T21:39:42.023Z,38.23
2022-08-09T21:42:28.650Z,39.06
2022-08-09T21:45:15.813Z,38.96
2022-08-09T21:48:01.930Z,39.96
2022-08-09T21:50:49.689Z,40.05
2022-08-09T21:53:40.653Z,40.12
2022-08-09T21:56:34.055Z,41.53
2022-08-09T21:59:28.705Z,41.40
2022-08-09T22:02:36.383Z,41.74
2022-08-09T22:05:23.403Z,41.92
2022-08-09T22:08:12.941Z,42.46
2022-08-09T22:11:50.355Z,43.88
2022-08-09T22:14:02.422Z,44.55
2022-08-09T22:16:46.368Z,44.74
2022-08-09T22:19:58.605Z,45.78
2022-08-09T22:22:37.995Z,46.51
2022-08-09T22:26:05.281Z,46.80
2022-08-09T22:28:29.657Z,47.36
2022-08-09T22:31:17.056Z,47.90
2022-08-09T22:34:00.946Z,47.73
2022-08-09T22:36:46.741Z,49.20
2022-08-09T22:39:57.781Z,49.89
2022-08-09T22:42:34.650Z,50.89
2022-08-09T22:48:14.399Z,51.80
2022-08-09T22:48:35.214Z,52.04
2022-08-09T22:51:23.942Z,52.88
2022-08-09T22:54:11.042Z,53.49
2022-08-09T22:56:57.213Z,53.95
2022-08-09T22:59:56.801Z,54.47
2022-08-09T23:02:45.010Z,55.23
2022-08-09T23:05:30.778Z,56.00
2022-08-09T23:08:34.585Z,57.01
2022-08-09T23:11:21.809Z,57.13
2022-08-09T23:14:09.862Z,58.04
2022-08-09T23:17:01.005Z,58.23
2022-08-09T23:20:07.267Z,58.23
2022-08-09T23:22:49.255Z,59.47
2022-08-09T23:25:33.349Z,59.87
2022-08-09T23:28:18.789Z,60.62
2022-08-09T23:31:03.121Z,61.47
2022-08-09T23:33:47.154Z,62.19
2022-08-09T23:36:31.500Z,62.63
2022-08-09T23:39:15.571Z,62.94
2022-08-09T23:41:59.790Z,62.69
2022-08-09T23:44:45.337Z,63.18
2022-08-09T23:47:29.322Z,62.76
2022-08-09T23:50:13.482Z,63.52
2022-08-09T23:52:57.788Z,64.09
2022-08-09T23:55:48.345Z,63.76
2022-08-09T23:58:33.885Z,63.69
